sensor_id;sensor_type;location;lat;lon;timestamp;P1;durP1;ratioP1;P2;durP2;ratioP2
52438;SDS011;38359;53.150;6.504;2022-12-18T00:01:38;142.30;;;45.08;;
52438;SDS011;38359;53.150;6.504;2022-12-18T00:12:04;152.57;;;45.60;;
52438;SDS011;38359;53.150;6.504;2022-12-18T00:22:30;182.82;;;45.67;;
52438;SDS011;38359;53.150;6.504;2022-12-18T00:32:56;152.18;;;42.70;;
52438;SDS011;38359;53.150;6.504;2022-12-18T00:43:22;153.75;;;43.58;;
52438;SDS011;38359;53.150;6.504;2022-12-18T00:53:48;123.43;;;40.42;;
52438;SDS011;38359;53.150;6.504;2022-12-18T01:04:14;128.02;;;38.78;;
52438;SDS011;38359;53.150;6.504;2022-12-18T01:14:40;128.63;;;36.58;;
52438;SDS011;38359;53.150;6.504;2022-12-18T01:25:09;114.30;;;36.60;;
52438;SDS011;38359;53.150;6.504;2022-12-18T01:35:39;138.32;;;39.47;;
52438;SDS011;38359;53.150;6.504;2022-12-18T01:46:08;145.17;;;40.27;;
52438;SDS011;38359;53.150;6.504;2022-12-18T01:56:34;130.18;;;39.53;;
52438;SDS011;38359;53.150;6.504;2022-12-18T02:07:06;135.13;;;36.83;;
52438;SDS011;38359;53.150;6.504;2022-12-18T02:17:49;139.95;;;38.08;;
52438;SDS011;38359;53.150;6.504;2022-12-18T02:28:20;120.25;;;38.70;;
52438;SDS011;38359;53.150;6.504;2022-12-18T02:38:52;140.25;;;40.20;;
52438;SDS011;38359;53.150;6.504;2022-12-18T03:10:42;139.57;;;42.15;;
52438;SDS011;38359;53.150;6.504;2022-12-18T03:21:33;142.38;;;42.25;;
52438;SDS011;38359;53.150;6.504;2022-12-18T03:32:11;143.18;;;43.38;;
52438;SDS011;38359;53.150;6.504;2022-12-18T03:42:49;145.48;;;41.60;;
52438;SDS011;38359;53.150;6.504;2022-12-18T03:53:35;141.15;;;41.20;;
52438;SDS011;38359;53.150;6.504;2022-12-18T04:04:13;132.68;;;41.10;;
52438;SDS011;38359;53.150;6.504;2022-12-18T04:14:41;134.05;;;39.22;;
52438;SDS011;38359;53.150;6.504;2022-12-18T04:25:07;111.63;;;36.40;;
52438;SDS011;38359;53.150;6.504;2022-12-18T04:35:33;123.05;;;37.45;;
52438;SDS011;38359;53.150;6.504;2022-12-18T04:46:03;114.85;;;35.88;;
52438;SDS011;38359;53.150;6.504;2022-12-18T04:56:31;116.35;;;36.17;;
52438;SDS011;38359;53.150;6.504;2022-12-18T05:06:57;131.35;;;36.63;;
52438;SDS011;38359;53.150;6.504;2022-12-18T05:17:23;118.65;;;37.42;;
52438;SDS011;38359;53.150;6.504;2022-12-18T05:27:48;123.68;;;34.80;;
52438;SDS011;38359;53.150;6.504;2022-12-18T05:38:14;121.82;;;33.90;;
52438;SDS011;38359;53.150;6.504;2022-12-18T05:48:41;118.53;;;34.60;;
52438;SDS011;38359;53.150;6.504;2022-12-18T05:59:07;96.88;;;32.35;;
52438;SDS011;38359;53.150;6.504;2022-12-18T06:09:33;98.78;;;31.55;;
52438;SDS011;38359;53.150;6.504;2022-12-18T06:19:59;105.32;;;31.00;;
52438;SDS011;38359;53.150;6.504;2022-12-18T06:30:26;91.15;;;28.75;;
52438;SDS011;38359;53.150;6.504;2022-12-18T06:40:52;87.45;;;29.02;;
52438;SDS011;38359;53.150;6.504;2022-12-18T06:51:19;71.55;;;25.75;;
52438;SDS011;38359;53.150;6.504;2022-12-18T07:01:46;79.40;;;27.17;;
52438;SDS011;38359;53.150;6.504;2022-12-18T07:12:12;70.97;;;24.77;;
52438;SDS011;38359;53.150;6.504;2022-12-18T07:22:38;65.43;;;23.75;;
52438;SDS011;38359;53.150;6.504;2022-12-18T07:33:04;59.88;;;22.73;;
52438;SDS011;38359;53.150;6.504;2022-12-18T07:43:30;64.28;;;24.83;;
52438;SDS011;38359;53.150;6.504;2022-12-18T07:53:56;63.58;;;22.83;;
52438;SDS011;38359;53.150;6.504;2022-12-18T08:04:22;57.85;;;22.58;;
52438;SDS011;38359;53.150;6.504;2022-12-18T08:14:48;56.55;;;22.27;;
52438;SDS011;38359;53.150;6.504;2022-12-18T08:25:13;59.65;;;23.20;;
52438;SDS011;38359;53.150;6.504;2022-12-18T08:35:39;51.72;;;20.05;;
52438;SDS011;38359;53.150;6.504;2022-12-18T08:46:05;56.65;;;22.25;;
52438;SDS011;38359;53.150;6.504;2022-12-18T08:56:31;54.95;;;21.00;;
52438;SDS011;38359;53.150;6.504;2022-12-18T09:06:58;51.90;;;19.65;;
52438;SDS011;38359;53.150;6.504;2022-12-18T09:17:23;46.42;;;19.65;;
52438;SDS011;38359;53.150;6.504;2022-12-18T09:27:49;55.65;;;21.55;;
52438;SDS011;38359;53.150;6.504;2022-12-18T09:38:16;43.53;;;20.15;;
52438;SDS011;38359;53.150;6.504;2022-12-18T09:48:45;40.13;;;18.33;;
52438;SDS011;38359;53.150;6.504;2022-12-18T09:59:25;36.55;;;16.08;;
52438;SDS011;38359;53.150;6.504;2022-12-18T10:10:46;42.22;;;14.77;;
52438;SDS011;38359;53.150;6.504;2022-12-18T10:21:21;35.95;;;14.90;;
52438;SDS011;38359;53.150;6.504;2022-12-18T10:32:03;41.00;;;19.23;;
52438;SDS011;38359;53.150;6.504;2022-12-18T10:42:29;41.10;;;17.88;;
52438;SDS011;38359;53.150;6.504;2022-12-18T10:53:01;32.92;;;14.73;;
52438;SDS011;38359;53.150;6.504;2022-12-18T11:03:40;30.85;;;13.38;;
52438;SDS011;38359;53.150;6.504;2022-12-18T11:14:16;26.92;;;13.02;;
52438;SDS011;38359;53.150;6.504;2022-12-18T11:46:22;20.15;;;10.48;;
52438;SDS011;38359;53.150;6.504;2022-12-18T12:40:01;14.40;;;7.10;;
52438;SDS011;38359;53.150;6.504;2022-12-18T12:50:28;14.77;;;7.32;;
52438;SDS011;38359;53.150;6.504;2022-12-18T13:22:31;10.93;;;6.20;;
52438;SDS011;38359;53.150;6.504;2022-12-18T13:43:42;17.33;;;6.45;;
52438;SDS011;38359;53.150;6.504;2022-12-18T13:54:34;14.35;;;6.55;;
52438;SDS011;38359;53.150;6.504;2022-12-18T14:05:02;15.15;;;6.25;;
52438;SDS011;38359;53.150;6.504;2022-12-18T14:15:39;15.02;;;5.78;;
52438;SDS011;38359;53.150;6.504;2022-12-18T14:26:27;12.82;;;5.85;;
52438;SDS011;38359;53.150;6.504;2022-12-18T14:36:55;14.93;;;6.82;;
52438;SDS011;38359;53.150;6.504;2022-12-18T14:47:21;16.42;;;6.95;;
52438;SDS011;38359;53.150;6.504;2022-12-18T14:57:49;14.38;;;6.88;;
52438;SDS011;38359;53.150;6.504;2022-12-18T15:08:30;14.75;;;7.07;;
52438;SDS011;38359;53.150;6.504;2022-12-18T15:19:01;15.63;;;7.63;;
52438;SDS011;38359;53.150;6.504;2022-12-18T15:29:26;18.67;;;8.57;;
52438;SDS011;38359;53.150;6.504;2022-12-18T15:39:52;19.13;;;7.88;;
52438;SDS011;38359;53.150;6.504;2022-12-18T15:50:18;15.98;;;8.73;;
52438;SDS011;38359;53.150;6.504;2022-12-18T16:00:44;29.83;;;13.75;;
52438;SDS011;38359;53.150;6.504;2022-12-18T16:11:24;17.08;;;9.55;;
52438;SDS011;38359;53.150;6.504;2022-12-18T16:22:05;25.05;;;10.80;;
52438;SDS011;38359;53.150;6.504;2022-12-18T16:32:43;24.65;;;12.75;;
52438;SDS011;38359;53.150;6.504;2022-12-18T16:43:09;27.85;;;14.52;;
52438;SDS011;38359;53.150;6.504;2022-12-18T16:53:34;21.40;;;10.65;;
52438;SDS011;38359;53.150;6.504;2022-12-18T17:04:04;17.73;;;9.20;;
52438;SDS011;38359;53.150;6.504;2022-12-18T17:14:31;18.80;;;9.68;;
52438;SDS011;38359;53.150;6.504;2022-12-18T17:24:57;19.52;;;8.63;;
52438;SDS011;38359;53.150;6.504;2022-12-18T17:35:23;20.67;;;10.27;;
52438;SDS011;38359;53.150;6.504;2022-12-18T17:45:49;18.83;;;8.98;;
52438;SDS011;38359;53.150;6.504;2022-12-18T17:56:16;18.83;;;8.25;;
52438;SDS011;38359;53.150;6.504;2022-12-18T18:06:44;21.92;;;8.60;;
52438;SDS011;38359;53.150;6.504;2022-12-18T18:17:09;20.27;;;8.77;;
52438;SDS011;38359;53.150;6.504;2022-12-18T18:27:35;19.02;;;8.40;;
52438;SDS011;38359;53.150;6.504;2022-12-18T18:38:01;23.63;;;8.27;;
52438;SDS011;38359;53.150;6.504;2022-12-18T18:48:30;15.98;;;8.05;;
52438;SDS011;38359;53.150;6.504;2022-12-18T18:58:59;16.73;;;8.02;;
52438;SDS011;38359;53.150;6.504;2022-12-18T19:09:25;15.48;;;8.48;;
52438;SDS011;38359;53.150;6.504;2022-12-18T19:19:51;16.33;;;7.60;;
52438;SDS011;38359;53.150;6.504;2022-12-18T19:30:17;18.75;;;9.30;;
52438;SDS011;38359;53.150;6.504;2022-12-18T19:40:43;20.00;;;9.88;;
52438;SDS011;38359;53.150;6.504;2022-12-18T19:51:10;21.88;;;9.80;;
52438;SDS011;38359;53.150;6.504;2022-12-18T20:01:43;24.30;;;13.03;;
52438;SDS011;38359;53.150;6.504;2022-12-18T20:12:09;22.02;;;10.18;;
52438;SDS011;38359;53.150;6.504;2022-12-18T20:22:35;27.15;;;12.13;;
52438;SDS011;38359;53.150;6.504;2022-12-18T20:33:01;23.73;;;11.38;;
52438;SDS011;38359;53.150;6.504;2022-12-18T20:43:29;22.92;;;11.93;;
52438;SDS011;38359;53.150;6.504;2022-12-18T20:53:55;25.38;;;14.40;;
52438;SDS011;38359;53.150;6.504;2022-12-18T21:04:23;30.40;;;13.60;;
52438;SDS011;38359;53.150;6.504;2022-12-18T21:14:49;33.78;;;14.95;;
52438;SDS011;38359;53.150;6.504;2022-12-18T21:25:15;38.45;;;16.30;;
52438;SDS011;38359;53.150;6.504;2022-12-18T21:35:41;33.17;;;16.48;;
52438;SDS011;38359;53.150;6.504;2022-12-18T21:46:07;37.92;;;14.50;;
52438;SDS011;38359;53.150;6.504;2022-12-18T22:07:12;34.88;;;17.52;;
52438;SDS011;38359;53.150;6.504;2022-12-18T22:17:39;38.63;;;18.77;;
52438;SDS011;38359;53.150;6.504;2022-12-18T22:28:05;51.13;;;20.63;;
52438;SDS011;38359;53.150;6.504;2022-12-18T22:38:49;43.42;;;20.48;;
52438;SDS011;38359;53.150;6.504;2022-12-18T22:49:16;46.35;;;22.48;;
52438;SDS011;38359;53.150;6.504;2022-12-18T22:59:44;46.97;;;21.65;;
52438;SDS011;38359;53.150;6.504;2022-12-18T23:10:10;52.72;;;23.75;;
52438;SDS011;38359;53.150;6.504;2022-12-18T23:20:36;49.40;;;23.42;;
52438;SDS011;38359;53.150;6.504;2022-12-18T23:31:12;53.40;;;24.67;;
52438;SDS011;38359;53.150;6.504;2022-12-18T23:41:45;53.00;;;25.02;;
52438;SDS011;38359;53.150;6.504;2022-12-18T23:52:10;48.15;;;21.85;;
